sensor_id;sensor_type;location;lat;lon;timestamp;P1;durP1;ratioP1;P2;durP2;ratioP2
81298;SDS011;70766;53.170;18.160;2023-08-06T00:01:15;5.70;;;3.10;;
81298;SDS011;70766;53.170;18.160;2023-08-06T00:03:49;7.40;;;3.20;;
81298;SDS011;70766;53.170;18.160;2023-08-06T00:06:17;7.80;;;4.60;;
81298;SDS011;70766;53.170;18.160;2023-08-06T00:08:45;6.40;;;3.70;;
81298;SDS011;70766;53.170;18.160;2023-08-06T00:11:13;9.40;;;4.60;;
81298;SDS011;70766;53.170;18.160;2023-08-06T00:13:42;9.60;;;5.50;;
81298;SDS011;70766;53.170;18.160;2023-08-06T00:16:10;7.80;;;4.20;;
81298;SDS011;70766;53.170;18.160;2023-08-06T00:18:40;6.10;;;2.80;;
81298;SDS011;70766;53.170;18.160;2023-08-06T00:21:08;5.90;;;3.50;;
81298;SDS011;70766;53.170;18.160;2023-08-06T00:23:36;9.00;;;4.20;;
81298;SDS011;70766;53.170;18.160;2023-08-06T00:26:04;6.60;;;4.20;;
81298;SDS011;70766;53.170;18.160;2023-08-06T00:28:32;7.30;;;4.40;;
81298;SDS011;70766;53.170;18.160;2023-08-06T00:31:00;8.50;;;4.50;;
81298;SDS011;70766;53.170;18.160;2023-08-06T00:33:28;6.00;;;3.60;;
81298;SDS011;70766;53.170;18.160;2023-08-06T00:35:56;5.30;;;3.40;;
81298;SDS011;70766;53.170;18.160;2023-08-06T00:38:24;5.60;;;3.20;;
81298;SDS011;70766;53.170;18.160;2023-08-06T00:40:52;7.10;;;3.10;;
81298;SDS011;70766;53.170;18.160;2023-08-06T00:43:21;6.40;;;3.60;;
81298;SDS011;70766;53.170;18.160;2023-08-06T00:45:49;5.80;;;4.00;;
81298;SDS011;70766;53.170;18.160;2023-08-06T00:48:17;7.60;;;4.00;;
81298;SDS011;70766;53.170;18.160;2023-08-06T00:50:45;7.70;;;4.10;;
81298;SDS011;70766;53.170;18.160;2023-08-06T00:53:13;7.70;;;3.90;;
81298;SDS011;70766;53.170;18.160;2023-08-06T00:55:43;6.30;;;4.30;;
81298;SDS011;70766;53.170;18.160;2023-08-06T00:58:12;6.90;;;4.20;;
81298;SDS011;70766;53.170;18.160;2023-08-06T01:00:43;7.00;;;4.30;;
81298;SDS011;70766;53.170;18.160;2023-08-06T01:03:11;10.10;;;4.30;;
81298;SDS011;70766;53.170;18.160;2023-08-06T01:05:39;9.10;;;4.90;;
81298;SDS011;70766;53.170;18.160;2023-08-06T01:16:15;8.00;;;4.50;;
81298;SDS011;70766;53.170;18.160;2023-08-06T01:18:44;8.10;;;3.80;;
81298;SDS011;70766;53.170;18.160;2023-08-06T01:21:17;8.80;;;4.90;;
81298;SDS011;70766;53.170;18.160;2023-08-06T01:23:46;7.40;;;4.00;;
81298;SDS011;70766;53.170;18.160;2023-08-06T01:26:22;8.70;;;4.70;;
81298;SDS011;70766;53.170;18.160;2023-08-06T01:31:30;9.50;;;5.20;;
81298;SDS011;70766;53.170;18.160;2023-08-06T01:34:01;8.20;;;4.30;;
81298;SDS011;70766;53.170;18.160;2023-08-06T01:36:32;8.00;;;4.80;;
81298;SDS011;70766;53.170;18.160;2023-08-06T01:39:01;10.40;;;6.00;;
81298;SDS011;70766;53.170;18.160;2023-08-06T01:41:30;10.80;;;5.40;;
81298;SDS011;70766;53.170;18.160;2023-08-06T01:43:58;7.50;;;4.80;;
81298;SDS011;70766;53.170;18.160;2023-08-06T01:46:26;9.10;;;4.90;;
81298;SDS011;70766;53.170;18.160;2023-08-06T01:48:54;10.80;;;5.50;;
81298;SDS011;70766;53.170;18.160;2023-08-06T01:51:22;8.70;;;4.90;;
81298;SDS011;70766;53.170;18.160;2023-08-06T01:53:50;10.80;;;5.20;;
81298;SDS011;70766;53.170;18.160;2023-08-06T01:56:18;11.90;;;6.40;;
81298;SDS011;70766;53.170;18.160;2023-08-06T01:58:46;9.00;;;5.00;;
81298;SDS011;70766;53.170;18.160;2023-08-06T02:01:15;9.90;;;4.50;;
81298;SDS011;70766;53.170;18.160;2023-08-06T02:03:43;7.30;;;5.20;;
81298;SDS011;70766;53.170;18.160;2023-08-06T02:06:11;8.20;;;5.30;;
81298;SDS011;70766;53.170;18.160;2023-08-06T02:08:40;7.90;;;4.30;;
81298;SDS011;70766;53.170;18.160;2023-08-06T02:11:08;10.90;;;5.40;;
81298;SDS011;70766;53.170;18.160;2023-08-06T02:13:36;6.40;;;3.90;;
81298;SDS011;70766;53.170;18.160;2023-08-06T02:16:06;6.70;;;4.00;;
81298;SDS011;70766;53.170;18.160;2023-08-06T02:18:38;6.50;;;3.90;;
81298;SDS011;70766;53.170;18.160;2023-08-06T02:21:06;8.50;;;4.80;;
81298;SDS011;70766;53.170;18.160;2023-08-06T02:23:36;8.00;;;4.40;;
81298;SDS011;70766;53.170;18.160;2023-08-06T02:26:04;4.10;;;2.70;;
81298;SDS011;70766;53.170;18.160;2023-08-06T02:28:33;5.50;;;3.70;;
81298;SDS011;70766;53.170;18.160;2023-08-06T02:31:01;6.00;;;3.70;;
81298;SDS011;70766;53.170;18.160;2023-08-06T02:33:29;9.00;;;4.90;;
81298;SDS011;70766;53.170;18.160;2023-08-06T02:36:01;6.50;;;4.60;;
81298;SDS011;70766;53.170;18.160;2023-08-06T02:38:32;7.70;;;3.90;;
81298;SDS011;70766;53.170;18.160;2023-08-06T02:41:04;8.70;;;4.90;;
81298;SDS011;70766;53.170;18.160;2023-08-06T02:43:32;7.10;;;4.70;;
81298;SDS011;70766;53.170;18.160;2023-08-06T02:46:01;8.80;;;4.30;;
81298;SDS011;70766;53.170;18.160;2023-08-06T02:48:29;8.30;;;4.40;;
81298;SDS011;70766;53.170;18.160;2023-08-06T02:50:57;8.00;;;4.90;;
81298;SDS011;70766;53.170;18.160;2023-08-06T02:53:28;6.80;;;4.00;;
81298;SDS011;70766;53.170;18.160;2023-08-06T02:55:57;8.40;;;4.30;;
81298;SDS011;70766;53.170;18.160;2023-08-06T02:58:31;7.20;;;4.00;;
81298;SDS011;70766;53.170;18.160;2023-08-06T03:01:14;7.10;;;3.60;;
81298;SDS011;70766;53.170;18.160;2023-08-06T03:03:47;8.50;;;4.40;;
81298;SDS011;70766;53.170;18.160;2023-08-06T03:06:21;6.20;;;3.40;;
81298;SDS011;70766;53.170;18.160;2023-08-06T03:08:50;8.40;;;4.50;;
81298;SDS011;70766;53.170;18.160;2023-08-06T03:11:18;5.60;;;3.50;;
81298;SDS011;70766;53.170;18.160;2023-08-06T03:13:47;8.10;;;4.00;;
81298;SDS011;70766;53.170;18.160;2023-08-06T03:16:17;7.80;;;3.90;;
81298;SDS011;70766;53.170;18.160;2023-08-06T03:18:45;8.50;;;4.40;;
81298;SDS011;70766;53.170;18.160;2023-08-06T03:21:13;6.00;;;3.80;;
81298;SDS011;70766;53.170;18.160;2023-08-06T03:23:41;6.60;;;3.90;;
81298;SDS011;70766;53.170;18.160;2023-08-06T03:26:10;5.30;;;3.00;;
81298;SDS011;70766;53.170;18.160;2023-08-06T03:28:38;7.40;;;3.80;;
81298;SDS011;70766;53.170;18.160;2023-08-06T03:31:06;6.40;;;4.00;;
81298;SDS011;70766;53.170;18.160;2023-08-06T03:33:38;6.80;;;3.60;;
81298;SDS011;70766;53.170;18.160;2023-08-06T03:36:09;5.90;;;2.90;;
81298;SDS011;70766;53.170;18.160;2023-08-06T03:38:38;4.50;;;2.90;;
81298;SDS011;70766;53.170;18.160;2023-08-06T03:41:07;6.70;;;4.20;;
81298;SDS011;70766;53.170;18.160;2023-08-06T03:43:35;6.20;;;4.00;;
81298;SDS011;70766;53.170;18.160;2023-08-06T03:46:06;7.80;;;4.20;;
81298;SDS011;70766;53.170;18.160;2023-08-06T03:48:34;4.90;;;3.40;;
81298;SDS011;70766;53.170;18.160;2023-08-06T03:51:02;6.80;;;3.90;;
81298;SDS011;70766;53.170;18.160;2023-08-06T03:53:30;6.30;;;4.20;;
81298;SDS011;70766;53.170;18.160;2023-08-06T03:55:58;5.50;;;3.60;;
81298;SDS011;70766;53.170;18.160;2023-08-06T03:58:31;9.60;;;4.60;;
81298;SDS011;70766;53.170;18.160;2023-08-06T04:01:02;8.40;;;4.00;;
81298;SDS011;70766;53.170;18.160;2023-08-06T04:03:48;5.70;;;3.50;;
81298;SDS011;70766;53.170;18.160;2023-08-06T04:06:17;7.60;;;4.30;;
81298;SDS011;70766;53.170;18.160;2023-08-06T04:08:45;9.20;;;4.50;;
81298;SDS011;70766;53.170;18.160;2023-08-06T04:11:13;6.30;;;3.90;;
81298;SDS011;70766;53.170;18.160;2023-08-06T04:13:42;9.70;;;3.80;;
81298;SDS011;70766;53.170;18.160;2023-08-06T04:16:11;5.20;;;4.00;;
81298;SDS011;70766;53.170;18.160;2023-08-06T04:18:41;8.30;;;3.80;;
81298;SDS011;70766;53.170;18.160;2023-08-06T04:21:09;7.30;;;3.20;;
81298;SDS011;70766;53.170;18.160;2023-08-06T04:23:37;9.00;;;3.90;;
81298;SDS011;70766;53.170;18.160;2023-08-06T04:26:07;7.90;;;3.90;;
81298;SDS011;70766;53.170;18.160;2023-08-06T04:28:35;7.90;;;3.90;;
81298;SDS011;70766;53.170;18.160;2023-08-06T04:31:03;7.00;;;4.20;;
81298;SDS011;70766;53.170;18.160;2023-08-06T04:33:33;5.30;;;3.40;;
81298;SDS011;70766;53.170;18.160;2023-08-06T04:36:06;4.90;;;3.30;;
81298;SDS011;70766;53.170;18.160;2023-08-06T04:38:35;5.20;;;2.80;;
81298;SDS011;70766;53.170;18.160;2023-08-06T04:41:03;4.70;;;2.70;;
81298;SDS011;70766;53.170;18.160;2023-08-06T04:43:31;5.60;;;3.10;;
81298;SDS011;70766;53.170;18.160;2023-08-06T04:46:00;4.00;;;2.40;;
81298;SDS011;70766;53.170;18.160;2023-08-06T04:48:28;6.90;;;3.00;;
81298;SDS011;70766;53.170;18.160;2023-08-06T04:50:56;8.20;;;2.90;;
81298;SDS011;70766;53.170;18.160;2023-08-06T04:53:24;4.30;;;2.30;;
81298;SDS011;70766;53.170;18.160;2023-08-06T04:55:52;5.00;;;3.40;;
81298;SDS011;70766;53.170;18.160;2023-08-06T04:58:20;6.20;;;3.50;;
81298;SDS011;70766;53.170;18.160;2023-08-06T05:00:48;4.00;;;2.60;;
81298;SDS011;70766;53.170;18.160;2023-08-06T05:03:16;4.10;;;2.50;;
81298;SDS011;70766;53.170;18.160;2023-08-06T05:05:45;4.00;;;2.50;;
81298;SDS011;70766;53.170;18.160;2023-08-06T05:08:14;4.90;;;3.10;;
81298;SDS011;70766;53.170;18.160;2023-08-06T05:10:44;3.90;;;2.40;;
81298;SDS011;70766;53.170;18.160;2023-08-06T05:13:13;4.40;;;2.70;;
81298;SDS011;70766;53.170;18.160;2023-08-06T05:15:41;3.60;;;2.50;;
81298;SDS011;70766;53.170;18.160;2023-08-06T05:18:10;4.70;;;2.90;;
81298;SDS011;70766;53.170;18.160;2023-08-06T05:20:40;3.90;;;2.90;;
81298;SDS011;70766;53.170;18.160;2023-08-06T05:23:09;6.90;;;3.70;;
81298;SDS011;70766;53.170;18.160;2023-08-06T05:25:37;7.80;;;4.40;;
81298;SDS011;70766;53.170;18.160;2023-08-06T05:28:06;6.50;;;4.60;;
81298;SDS011;70766;53.170;18.160;2023-08-06T05:30:38;6.00;;;3.80;;
81298;SDS011;70766;53.170;18.160;2023-08-06T05:33:07;7.80;;;5.80;;
81298;SDS011;70766;53.170;18.160;2023-08-06T05:35:35;11.50;;;6.40;;
81298;SDS011;70766;53.170;18.160;2023-08-06T05:38:03;8.70;;;5.40;;
81298;SDS011;70766;53.170;18.160;2023-08-06T05:40:32;7.70;;;5.10;;
81298;SDS011;70766;53.170;18.160;2023-08-06T05:43:01;8.70;;;5.40;;
81298;SDS011;70766;53.170;18.160;2023-08-06T05:45:29;6.70;;;4.30;;
81298;SDS011;70766;53.170;18.160;2023-08-06T05:47:58;6.60;;;4.60;;
81298;SDS011;70766;53.170;18.160;2023-08-06T05:50:26;6.00;;;3.80;;
81298;SDS011;70766;53.170;18.160;2023-08-06T05:52:54;6.20;;;3.90;;
81298;SDS011;70766;53.170;18.160;2023-08-06T05:55:22;5.60;;;3.40;;
81298;SDS011;70766;53.170;18.160;2023-08-06T05:57:50;7.40;;;4.80;;
81298;SDS011;70766;53.170;18.160;2023-08-06T06:00:20;7.40;;;4.40;;
81298;SDS011;70766;53.170;18.160;2023-08-06T06:02:49;8.30;;;5.40;;
81298;SDS011;70766;53.170;18.160;2023-08-06T06:05:17;4.90;;;3.50;;
81298;SDS011;70766;53.170;18.160;2023-08-06T06:07:45;7.20;;;4.60;;
81298;SDS011;70766;53.170;18.160;2023-08-06T06:10:13;6.70;;;4.50;;
81298;SDS011;70766;53.170;18.160;2023-08-06T06:12:42;9.60;;;5.80;;
81298;SDS011;70766;53.170;18.160;2023-08-06T06:15:10;8.60;;;5.50;;
81298;SDS011;70766;53.170;18.160;2023-08-06T06:17:38;7.30;;;4.90;;
81298;SDS011;70766;53.170;18.160;2023-08-06T06:20:06;7.40;;;5.20;;
81298;SDS011;70766;53.170;18.160;2023-08-06T06:22:34;10.60;;;4.80;;
81298;SDS011;70766;53.170;18.160;2023-08-06T06:25:03;6.90;;;4.80;;
81298;SDS011;70766;53.170;18.160;2023-08-06T06:27:31;8.60;;;4.80;;
81298;SDS011;70766;53.170;18.160;2023-08-06T06:29:59;7.40;;;4.90;;
81298;SDS011;70766;53.170;18.160;2023-08-06T06:32:27;10.50;;;5.40;;
81298;SDS011;70766;53.170;18.160;2023-08-06T06:34:55;8.30;;;5.20;;
81298;SDS011;70766;53.170;18.160;2023-08-06T06:37:23;9.00;;;5.20;;
81298;SDS011;70766;53.170;18.160;2023-08-06T06:39:51;7.70;;;5.10;;
81298;SDS011;70766;53.170;18.160;2023-08-06T06:42:19;8.00;;;4.70;;
81298;SDS011;70766;53.170;18.160;2023-08-06T06:44:50;7.90;;;5.30;;
81298;SDS011;70766;53.170;18.160;2023-08-06T06:47:18;7.10;;;4.40;;
81298;SDS011;70766;53.170;18.160;2023-08-06T06:49:46;7.40;;;5.40;;
81298;SDS011;70766;53.170;18.160;2023-08-06T06:52:15;9.50;;;4.90;;
81298;SDS011;70766;53.170;18.160;2023-08-06T06:54:43;6.40;;;4.60;;
81298;SDS011;70766;53.170;18.160;2023-08-06T06:57:12;6.00;;;3.90;;
81298;SDS011;70766;53.170;18.160;2023-08-06T06:59:40;7.50;;;4.80;;
81298;SDS011;70766;53.170;18.160;2023-08-06T07:02:08;5.60;;;4.10;;
81298;SDS011;70766;53.170;18.160;2023-08-06T07:04:36;6.70;;;4.70;;
81298;SDS011;70766;53.170;18.160;2023-08-06T07:07:04;7.10;;;4.50;;
81298;SDS011;70766;53.170;18.160;2023-08-06T07:09:33;7.20;;;4.70;;
81298;SDS011;70766;53.170;18.160;2023-08-06T07:12:01;8.20;;;5.10;;
81298;SDS011;70766;53.170;18.160;2023-08-06T07:14:30;7.30;;;5.00;;
81298;SDS011;70766;53.170;18.160;2023-08-06T07:16:58;7.50;;;5.30;;
81298;SDS011;70766;53.170;18.160;2023-08-06T07:19:26;6.70;;;4.90;;
81298;SDS011;70766;53.170;18.160;2023-08-06T07:21:55;7.10;;;4.70;;
81298;SDS011;70766;53.170;18.160;2023-08-06T07:24:24;7.10;;;4.50;;
81298;SDS011;70766;53.170;18.160;2023-08-06T07:26:52;7.30;;;5.20;;
81298;SDS011;70766;53.170;18.160;2023-08-06T07:29:28;9.60;;;5.80;;
81298;SDS011;70766;53.170;18.160;2023-08-06T07:31:56;6.50;;;5.00;;
81298;SDS011;70766;53.170;18.160;2023-08-06T07:34:24;7.10;;;5.30;;
81298;SDS011;70766;53.170;18.160;2023-08-06T07:36:56;6.90;;;4.50;;
81298;SDS011;70766;53.170;18.160;2023-08-06T07:39:24;8.40;;;5.60;;
81298;SDS011;70766;53.170;18.160;2023-08-06T07:41:53;4.80;;;3.50;;
81298;SDS011;70766;53.170;18.160;2023-08-06T07:44:24;5.90;;;3.70;;
81298;SDS011;70766;53.170;18.160;2023-08-06T07:46:54;7.00;;;3.80;;
81298;SDS011;70766;53.170;18.160;2023-08-06T07:49:23;8.70;;;5.20;;
81298;SDS011;70766;53.170;18.160;2023-08-06T07:51:52;9.40;;;5.70;;
81298;SDS011;70766;53.170;18.160;2023-08-06T07:54:21;8.60;;;5.40;;
81298;SDS011;70766;53.170;18.160;2023-08-06T07:56:56;6.00;;;4.40;;
81298;SDS011;70766;53.170;18.160;2023-08-06T07:59:24;6.40;;;4.80;;
81298;SDS011;70766;53.170;18.160;2023-08-06T08:01:52;8.90;;;6.20;;
81298;SDS011;70766;53.170;18.160;2023-08-06T08:04:21;11.70;;;6.60;;
81298;SDS011;70766;53.170;18.160;2023-08-06T08:06:49;8.60;;;5.80;;
81298;SDS011;70766;53.170;18.160;2023-08-06T08:09:18;8.30;;;5.20;;
81298;SDS011;70766;53.170;18.160;2023-08-06T08:11:47;7.10;;;4.90;;
81298;SDS011;70766;53.170;18.160;2023-08-06T08:14:17;7.90;;;5.70;;
81298;SDS011;70766;53.170;18.160;2023-08-06T08:16:45;7.70;;;5.60;;
81298;SDS011;70766;53.170;18.160;2023-08-06T08:19:14;5.70;;;4.30;;
81298;SDS011;70766;53.170;18.160;2023-08-06T08:21:42;6.20;;;4.00;;
81298;SDS011;70766;53.170;18.160;2023-08-06T08:24:10;6.50;;;4.30;;
81298;SDS011;70766;53.170;18.160;2023-08-06T08:26:38;8.30;;;4.30;;
81298;SDS011;70766;53.170;18.160;2023-08-06T08:29:06;6.70;;;3.60;;
81298;SDS011;70766;53.170;18.160;2023-08-06T08:31:34;5.90;;;3.10;;
81298;SDS011;70766;53.170;18.160;2023-08-06T08:34:07;6.50;;;4.10;;
81298;SDS011;70766;53.170;18.160;2023-08-06T08:36:35;5.50;;;4.00;;
81298;SDS011;70766;53.170;18.160;2023-08-06T08:39:04;5.30;;;4.00;;
81298;SDS011;70766;53.170;18.160;2023-08-06T08:41:33;5.60;;;3.80;;
81298;SDS011;70766;53.170;18.160;2023-08-06T08:44:08;5.00;;;3.10;;
81298;SDS011;70766;53.170;18.160;2023-08-06T08:46:40;5.50;;;4.40;;
81298;SDS011;70766;53.170;18.160;2023-08-06T08:49:10;5.80;;;3.80;;
81298;SDS011;70766;53.170;18.160;2023-08-06T08:51:41;5.20;;;3.20;;
81298;SDS011;70766;53.170;18.160;2023-08-06T08:54:13;5.90;;;3.50;;
81298;SDS011;70766;53.170;18.160;2023-08-06T08:56:46;6.10;;;4.20;;
81298;SDS011;70766;53.170;18.160;2023-08-06T08:59:15;8.00;;;4.10;;
81298;SDS011;70766;53.170;18.160;2023-08-06T09:01:46;10.70;;;4.90;;
81298;SDS011;70766;53.170;18.160;2023-08-06T09:04:20;6.60;;;5.00;;
81298;SDS011;70766;53.170;18.160;2023-08-06T09:06:51;5.20;;;3.50;;
81298;SDS011;70766;53.170;18.160;2023-08-06T09:09:25;8.00;;;4.30;;
81298;SDS011;70766;53.170;18.160;2023-08-06T09:12:01;8.00;;;5.30;;
81298;SDS011;70766;53.170;18.160;2023-08-06T09:14:30;8.40;;;4.60;;
81298;SDS011;70766;53.170;18.160;2023-08-06T09:16:59;7.70;;;5.50;;
81298;SDS011;70766;53.170;18.160;2023-08-06T09:19:28;7.20;;;4.50;;
81298;SDS011;70766;53.170;18.160;2023-08-06T09:21:56;9.60;;;5.00;;
81298;SDS011;70766;53.170;18.160;2023-08-06T09:24:25;9.10;;;5.60;;
81298;SDS011;70766;53.170;18.160;2023-08-06T09:26:54;9.40;;;6.30;;
81298;SDS011;70766;53.170;18.160;2023-08-06T09:29:22;9.60;;;5.70;;
81298;SDS011;70766;53.170;18.160;2023-08-06T09:31:51;6.80;;;4.80;;
81298;SDS011;70766;53.170;18.160;2023-08-06T09:34:21;8.40;;;5.20;;
81298;SDS011;70766;53.170;18.160;2023-08-06T09:36:51;7.60;;;4.70;;
81298;SDS011;70766;53.170;18.160;2023-08-06T09:39:28;10.00;;;5.60;;
81298;SDS011;70766;53.170;18.160;2023-08-06T09:41:59;6.50;;;4.60;;
81298;SDS011;70766;53.170;18.160;2023-08-06T09:44:30;8.20;;;4.90;;
81298;SDS011;70766;53.170;18.160;2023-08-06T09:47:01;7.50;;;5.40;;
81298;SDS011;70766;53.170;18.160;2023-08-06T09:52:02;7.90;;;4.30;;
81298;SDS011;70766;53.170;18.160;2023-08-06T09:54:30;8.10;;;4.90;;
81298;SDS011;70766;53.170;18.160;2023-08-06T09:57:03;6.50;;;4.10;;
81298;SDS011;70766;53.170;18.160;2023-08-06T09:59:33;7.90;;;5.60;;
81298;SDS011;70766;53.170;18.160;2023-08-06T10:02:03;9.20;;;6.20;;
81298;SDS011;70766;53.170;18.160;2023-08-06T10:04:39;9.20;;;6.10;;
81298;SDS011;70766;53.170;18.160;2023-08-06T10:07:09;8.50;;;5.00;;
81298;SDS011;70766;53.170;18.160;2023-08-06T10:09:41;8.00;;;5.80;;
81298;SDS011;70766;53.170;18.160;2023-08-06T10:12:09;8.70;;;5.90;;
81298;SDS011;70766;53.170;18.160;2023-08-06T10:14:38;7.80;;;5.20;;
81298;SDS011;70766;53.170;18.160;2023-08-06T10:17:07;8.90;;;5.90;;
81298;SDS011;70766;53.170;18.160;2023-08-06T10:19:37;8.50;;;5.90;;
81298;SDS011;70766;53.170;18.160;2023-08-06T10:24:45;11.20;;;7.10;;
81298;SDS011;70766;53.170;18.160;2023-08-06T10:30:21;11.20;;;6.40;;
81298;SDS011;70766;53.170;18.160;2023-08-06T10:32:52;10.20;;;6.00;;
81298;SDS011;70766;53.170;18.160;2023-08-06T10:38:04;8.80;;;6.70;;
81298;SDS011;70766;53.170;18.160;2023-08-06T10:43:26;10.00;;;7.00;;
81298;SDS011;70766;53.170;18.160;2023-08-06T10:45:58;8.70;;;6.80;;
81298;SDS011;70766;53.170;18.160;2023-08-06T10:48:34;9.90;;;6.60;;
81298;SDS011;70766;53.170;18.160;2023-08-06T10:51:09;9.70;;;6.40;;
81298;SDS011;70766;53.170;18.160;2023-08-06T10:53:42;8.10;;;5.80;;
81298;SDS011;70766;53.170;18.160;2023-08-06T10:56:18;9.90;;;7.10;;
81298;SDS011;70766;53.170;18.160;2023-08-06T10:58:51;9.70;;;6.40;;
81298;SDS011;70766;53.170;18.160;2023-08-06T11:01:22;9.00;;;6.40;;
81298;SDS011;70766;53.170;18.160;2023-08-06T11:03:51;8.40;;;6.10;;
81298;SDS011;70766;53.170;18.160;2023-08-06T11:06:21;9.30;;;7.30;;
81298;SDS011;70766;53.170;18.160;2023-08-06T11:08:51;9.20;;;6.50;;
81298;SDS011;70766;53.170;18.160;2023-08-06T11:11:22;9.80;;;6.50;;
81298;SDS011;70766;53.170;18.160;2023-08-06T11:13:51;9.20;;;6.90;;
81298;SDS011;70766;53.170;18.160;2023-08-06T11:16:24;9.90;;;7.40;;
81298;SDS011;70766;53.170;18.160;2023-08-06T11:18:52;10.10;;;7.30;;
81298;SDS011;70766;53.170;18.160;2023-08-06T11:21:22;9.10;;;6.80;;
81298;SDS011;70766;53.170;18.160;2023-08-06T11:23:52;10.10;;;7.40;;
81298;SDS011;70766;53.170;18.160;2023-08-06T11:26:22;10.00;;;6.90;;
81298;SDS011;70766;53.170;18.160;2023-08-06T11:28:57;9.90;;;6.80;;
81298;SDS011;70766;53.170;18.160;2023-08-06T11:31:25;12.10;;;8.30;;
81298;SDS011;70766;53.170;18.160;2023-08-06T11:33:54;13.00;;;8.30;;
81298;SDS011;70766;53.170;18.160;2023-08-06T11:36:29;10.30;;;7.20;;
81298;SDS011;70766;53.170;18.160;2023-08-06T11:39:00;13.80;;;9.80;;
81298;SDS011;70766;53.170;18.160;2023-08-06T11:41:28;12.70;;;9.00;;
81298;SDS011;70766;53.170;18.160;2023-08-06T11:44:00;13.80;;;9.90;;
81298;SDS011;70766;53.170;18.160;2023-08-06T11:46:28;11.50;;;8.30;;
81298;SDS011;70766;53.170;18.160;2023-08-06T11:48:57;10.80;;;7.20;;
81298;SDS011;70766;53.170;18.160;2023-08-06T11:51:27;9.80;;;6.80;;
81298;SDS011;70766;53.170;18.160;2023-08-06T11:53:56;14.60;;;9.10;;
81298;SDS011;70766;53.170;18.160;2023-08-06T11:56:26;13.80;;;8.80;;
81298;SDS011;70766;53.170;18.160;2023-08-06T11:58:56;12.60;;;8.70;;
81298;SDS011;70766;53.170;18.160;2023-08-06T12:01:25;12.90;;;9.40;;
81298;SDS011;70766;53.170;18.160;2023-08-06T12:03:59;13.90;;;9.40;;
81298;SDS011;70766;53.170;18.160;2023-08-06T12:06:29;12.30;;;9.00;;
81298;SDS011;70766;53.170;18.160;2023-08-06T12:08:58;16.90;;;11.20;;
81298;SDS011;70766;53.170;18.160;2023-08-06T12:11:27;14.20;;;10.10;;
81298;SDS011;70766;53.170;18.160;2023-08-06T12:13:56;19.00;;;10.90;;
81298;SDS011;70766;53.170;18.160;2023-08-06T12:16:24;15.10;;;9.90;;
81298;SDS011;70766;53.170;18.160;2023-08-06T12:18:52;16.20;;;10.90;;
81298;SDS011;70766;53.170;18.160;2023-08-06T12:21:20;16.30;;;10.30;;
81298;SDS011;70766;53.170;18.160;2023-08-06T12:23:48;16.20;;;11.10;;
81298;SDS011;70766;53.170;18.160;2023-08-06T12:26:16;18.00;;;11.00;;
81298;SDS011;70766;53.170;18.160;2023-08-06T12:28:45;17.40;;;11.50;;
81298;SDS011;70766;53.170;18.160;2023-08-06T12:31:13;15.00;;;9.80;;
81298;SDS011;70766;53.170;18.160;2023-08-06T12:33:41;19.30;;;11.50;;
81298;SDS011;70766;53.170;18.160;2023-08-06T12:36:09;22.60;;;13.40;;
81298;SDS011;70766;53.170;18.160;2023-08-06T12:38:37;20.60;;;13.00;;
81298;SDS011;70766;53.170;18.160;2023-08-06T12:41:05;20.30;;;13.00;;
81298;SDS011;70766;53.170;18.160;2023-08-06T12:43:34;15.80;;;10.70;;
81298;SDS011;70766;53.170;18.160;2023-08-06T12:46:02;19.10;;;13.60;;
81298;SDS011;70766;53.170;18.160;2023-08-06T12:48:30;24.60;;;14.00;;
81298;SDS011;70766;53.170;18.160;2023-08-06T12:50:58;22.90;;;15.90;;
81298;SDS011;70766;53.170;18.160;2023-08-06T12:53:27;23.70;;;15.70;;
81298;SDS011;70766;53.170;18.160;2023-08-06T12:55:55;21.60;;;14.30;;
81298;SDS011;70766;53.170;18.160;2023-08-06T12:58:23;24.80;;;14.30;;
81298;SDS011;70766;53.170;18.160;2023-08-06T13:00:51;20.90;;;14.00;;
81298;SDS011;70766;53.170;18.160;2023-08-06T13:03:19;16.80;;;11.70;;
81298;SDS011;70766;53.170;18.160;2023-08-06T13:05:47;19.30;;;14.10;;
81298;SDS011;70766;53.170;18.160;2023-08-06T13:08:17;18.40;;;13.30;;
81298;SDS011;70766;53.170;18.160;2023-08-06T13:10:47;19.80;;;13.30;;
81298;SDS011;70766;53.170;18.160;2023-08-06T13:13:16;18.60;;;12.90;;
81298;SDS011;70766;53.170;18.160;2023-08-06T13:15:44;15.10;;;10.80;;
81298;SDS011;70766;53.170;18.160;2023-08-06T13:18:16;18.80;;;12.50;;
81298;SDS011;70766;53.170;18.160;2023-08-06T13:20:44;15.10;;;11.50;;
81298;SDS011;70766;53.170;18.160;2023-08-06T13:23:15;17.60;;;9.90;;
81298;SDS011;70766;53.170;18.160;2023-08-06T13:25:46;13.20;;;8.90;;
81298;SDS011;70766;53.170;18.160;2023-08-06T13:28:17;14.00;;;10.40;;
81298;SDS011;70766;53.170;18.160;2023-08-06T13:30:46;14.40;;;10.10;;
81298;SDS011;70766;53.170;18.160;2023-08-06T13:33:15;13.70;;;11.30;;
81298;SDS011;70766;53.170;18.160;2023-08-06T13:35:44;11.80;;;9.50;;
81298;SDS011;70766;53.170;18.160;2023-08-06T13:38:13;14.60;;;10.80;;
81298;SDS011;70766;53.170;18.160;2023-08-06T13:40:41;13.80;;;10.50;;
81298;SDS011;70766;53.170;18.160;2023-08-06T13:43:13;13.10;;;9.60;;
81298;SDS011;70766;53.170;18.160;2023-08-06T13:45:41;16.70;;;11.20;;
81298;SDS011;70766;53.170;18.160;2023-08-06T13:48:12;17.00;;;13.30;;
81298;SDS011;70766;53.170;18.160;2023-08-06T13:50:46;18.10;;;14.10;;
81298;SDS011;70766;53.170;18.160;2023-08-06T13:53:15;19.30;;;15.00;;
81298;SDS011;70766;53.170;18.160;2023-08-06T13:55:45;17.10;;;12.30;;
81298;SDS011;70766;53.170;18.160;2023-08-06T13:58:13;19.60;;;13.50;;
81298;SDS011;70766;53.170;18.160;2023-08-06T14:00:42;18.50;;;15.60;;
81298;SDS011;70766;53.170;18.160;2023-08-06T14:03:10;19.50;;;14.40;;
81298;SDS011;70766;53.170;18.160;2023-08-06T14:05:39;19.70;;;15.20;;
81298;SDS011;70766;53.170;18.160;2023-08-06T14:08:07;18.70;;;13.90;;
81298;SDS011;70766;53.170;18.160;2023-08-06T14:10:36;17.40;;;12.90;;
81298;SDS011;70766;53.170;18.160;2023-08-06T14:13:04;18.50;;;15.00;;
81298;SDS011;70766;53.170;18.160;2023-08-06T14:15:38;21.10;;;15.30;;
81298;SDS011;70766;53.170;18.160;2023-08-06T14:18:10;15.30;;;12.10;;
81298;SDS011;70766;53.170;18.160;2023-08-06T14:20:40;19.80;;;15.30;;
81298;SDS011;70766;53.170;18.160;2023-08-06T14:23:12;19.70;;;14.80;;
81298;SDS011;70766;53.170;18.160;2023-08-06T14:25:40;19.00;;;14.20;;
81298;SDS011;70766;53.170;18.160;2023-08-06T14:28:10;19.80;;;15.50;;
81298;SDS011;70766;53.170;18.160;2023-08-06T14:30:38;17.70;;;14.10;;
81298;SDS011;70766;53.170;18.160;2023-08-06T14:33:20;19.80;;;14.50;;
81298;SDS011;70766;53.170;18.160;2023-08-06T14:35:55;20.90;;;15.50;;
81298;SDS011;70766;53.170;18.160;2023-08-06T14:38:24;21.20;;;15.20;;
81298;SDS011;70766;53.170;18.160;2023-08-06T14:40:56;21.30;;;16.40;;
81298;SDS011;70766;53.170;18.160;2023-08-06T14:43:24;21.60;;;17.50;;
81298;SDS011;70766;53.170;18.160;2023-08-06T14:45:54;22.10;;;17.00;;
81298;SDS011;70766;53.170;18.160;2023-08-06T14:48:23;23.30;;;17.30;;
81298;SDS011;70766;53.170;18.160;2023-08-06T14:50:51;20.70;;;15.90;;
81298;SDS011;70766;53.170;18.160;2023-08-06T14:53:19;23.50;;;17.50;;
81298;SDS011;70766;53.170;18.160;2023-08-06T14:55:52;23.70;;;16.20;;
81298;SDS011;70766;53.170;18.160;2023-08-06T14:58:21;19.50;;;14.50;;
81298;SDS011;70766;53.170;18.160;2023-08-06T15:00:54;17.40;;;13.00;;
81298;SDS011;70766;53.170;18.160;2023-08-06T15:03:23;17.40;;;12.50;;
81298;SDS011;70766;53.170;18.160;2023-08-06T15:05:52;18.20;;;11.80;;